Gas City, IN

8:40 PM EST on December 22, 2014 (GMT -0500)
Delaware County-Johnson | Change Station
CLOSE
Current Station
Airport
Location: Muncie,
Elevation: 938 ft
Nearby Weather Stations

Elev 938 ft 40.23 °N, 85.39 °W | Updated 47 minutes ago

Rain
Rain
39 °F
Feels Like 35 °F
N
6
Wind Variable Wind from SE

Today
High -- | Low -- °F
--% Chance of Precip.
Yesterday
High -- | Low -- °F
Precip. -- in
8:02 AM 5:19 PM
New Moon, 1% visible
Pressure 29.78 in
Visibility 8.0 miles
Clouds Overcast 8000 ft
Windchill 35 °F
Dew Point 36 °F
Humidity 89%
Rainfall 0.00 in
Snow Depth Not available.
UV 0 out of 12
Pollen .10 out of 12
Air Quality Not available.
Flu Activity Not available.
METAR KMIE 230053Z 13005KT 8SM OVC080 04/02 A2976 RMK AO2 SLP083 T00390022

More Conditions Fewer Conditions

Pressure 29.78 in
Visibility 8.0 miles
Clouds Overcast 8000 ft
Windchill 35 °F
Dew Point 36 °F
Humidity 89%
Rainfall 0.00 in
Snow Depth Not available.
UV 0 out of 12
Pollen .10 out of 12
Air Quality Not available.
Flu Activity Not available.
METAR KMIE 230053Z 13005KT 8SM OVC080 04/02 A2976 RMK AO2 SLP083 T00390022

More Conditions Fewer Conditions

10-Day Weather Forecast

Almanac

Astronomy

Dec. 22, 2014 Rise Set
Actual Time
Civil Twilight
Nautical Twilight
Astronomical Twilight
Moon
Length of Visible Light
Length of Day
Tomorrow will be .
, % of the Moon is Illuminated

Today's Extremes

State Highs State Lows

Community

WunderPhotos

Upload Photos

1,779,753 photos uploaded!

WunderBlogs® & News

Nearby

Air Quality

  Air Quality AQ Index Pollutant
Not available.

Snow Depth

Station Depth Elevation

Earthquake Activity

City Distance Mag. Time & Date
Minimum magnitude displayed is 2.5.

Coastal Water Temperatures

Place Temperature

Nearby Weather Stations